sensor_id;sensor_type;location;lat;lon;timestamp;pressure;altitude;pressure_sealevel;temperature;humidity
21276;BME280;36472;52.170;20.884;2023-01-19T00:00:12;99215.75;;;2.81;100.00
21276;BME280;36472;52.170;20.884;2023-01-19T00:03:03;99219.97;;;2.84;100.00
21276;BME280;36472;52.170;20.884;2023-01-19T00:05:34;99228.59;;;2.85;100.00
21276;BME280;36472;52.170;20.884;2023-01-19T00:08:05;99224.22;;;2.85;100.00
21276;BME280;36472;52.170;20.884;2023-01-19T00:10:44;99230.34;;;2.84;100.00
21276;BME280;36472;52.170;20.884;2023-01-19T00:13:14;99234.59;;;2.85;100.00
21276;BME280;36472;52.170;20.884;2023-01-19T00:15:44;99246.59;;;2.88;100.00
21276;BME280;36472;52.170;20.884;2023-01-19T00:18:13;99242.31;;;2.87;100.00
21276;BME280;36472;52.170;20.884;2023-01-19T00:20:44;99241.47;;;2.86;100.00
21276;BME280;36472;52.170;20.884;2023-01-19T00:23:15;99235.38;;;2.87;100.00
21276;BME280;36472;52.170;20.884;2023-01-19T00:25:45;99238.81;;;2.88;100.00
21276;BME280;36472;52.170;20.884;2023-01-19T00:28:17;99245.59;;;2.90;100.00
21276;BME280;36472;52.170;20.884;2023-01-19T00:30:48;99249.03;;;2.91;100.00
21276;BME280;36472;52.170;20.884;2023-01-19T00:33:18;99261.94;;;2.92;100.00
21276;BME280;36472;52.170;20.884;2023-01-19T00:35:50;99261.06;;;2.92;100.00
21276;BME280;36472;52.170;20.884;2023-01-19T00:38:23;99263.59;;;2.93;100.00
21276;BME280;36472;52.170;20.884;2023-01-19T00:40:51;99275.75;;;2.93;100.00
21276;BME280;36472;52.170;20.884;2023-01-19T00:43:21;99280.94;;;2.93;100.00
21276;BME280;36472;52.170;20.884;2023-01-19T00:45:48;99276.50;;;2.95;100.00
21276;BME280;36472;52.170;20.884;2023-01-19T00:48:18;99275.75;;;2.93;100.00
21276;BME280;36472;52.170;20.884;2023-01-19T00:50:47;99281.00;;;2.91;100.00
21276;BME280;36472;52.170;20.884;2023-01-19T00:53:16;99275.97;;;2.88;100.00
21276;BME280;36472;52.170;20.884;2023-01-19T00:55:47;99275.00;;;2.91;100.00
21276;BME280;36472;52.170;20.884;2023-01-19T00:58:16;99279.31;;;2.90;100.00
21276;BME280;36472;52.170;20.884;2023-01-19T01:00:45;99273.16;;;2.93;100.00
21276;BME280;36472;52.170;20.884;2023-01-19T01:03:14;99275.75;;;2.93;100.00
21276;BME280;36472;52.170;20.884;2023-01-19T01:05:43;99285.88;;;2.97;100.00
21276;BME280;36472;52.170;20.884;2023-01-19T01:08:12;99278.94;;;2.98;100.00
21276;BME280;36472;52.170;20.884;2023-01-19T01:10:41;99279.91;;;2.95;100.00
21276;BME280;36472;52.170;20.884;2023-01-19T01:13:11;99272.25;;;2.94;100.00
21276;BME280;36472;52.170;20.884;2023-01-19T01:15:49;99267.88;;;2.94;100.00
21276;BME280;36472;52.170;20.884;2023-01-19T01:18:20;99266.44;;;2.89;100.00
21276;BME280;36472;52.170;20.884;2023-01-19T01:20:49;99256.06;;;2.89;100.00
21276;BME280;36472;52.170;20.884;2023-01-19T01:23:19;99262.75;;;2.93;100.00
21276;BME280;36472;52.170;20.884;2023-01-19T01:25:49;99253.38;;;2.90;100.00
21276;BME280;36472;52.170;20.884;2023-01-19T01:28:20;99256.91;;;2.89;100.00
21276;BME280;36472;52.170;20.884;2023-01-19T01:30:53;99249.13;;;2.89;100.00
21276;BME280;36472;52.170;20.884;2023-01-19T01:33:23;99255.47;;;2.84;100.00
21276;BME280;36472;52.170;20.884;2023-01-19T01:36:09;99235.84;;;2.78;100.00
21276;BME280;36472;52.170;20.884;2023-01-19T01:38:39;99226.63;;;2.72;100.00
21276;BME280;36472;52.170;20.884;2023-01-19T01:41:08;99236.41;;;2.67;100.00
21276;BME280;36472;52.170;20.884;2023-01-19T01:43:45;99232.53;;;2.58;100.00
21276;BME280;36472;52.170;20.884;2023-01-19T01:46:16;99236.34;;;2.51;100.00
21276;BME280;36472;52.170;20.884;2023-01-19T01:48:53;99240.16;;;2.44;100.00
21276;BME280;36472;52.170;20.884;2023-01-19T01:51:28;99240.47;;;2.38;100.00
21276;BME280;36472;52.170;20.884;2023-01-19T01:54:08;99239.25;;;2.28;100.00
21276;BME280;36472;52.170;20.884;2023-01-19T01:56:42;99237.88;;;2.20;100.00
21276;BME280;36472;52.170;20.884;2023-01-19T01:59:16;99242.13;;;2.21;100.00
21276;BME280;36472;52.170;20.884;2023-01-19T02:01:55;99238.56;;;2.41;100.00
21276;BME280;36472;52.170;20.884;2023-01-19T02:04:47;99240.16;;;2.44;100.00
21276;BME280;36472;52.170;20.884;2023-01-19T02:07:29;99245.19;;;2.12;100.00
21276;BME280;36472;52.170;20.884;2023-01-19T02:10:17;99257.81;;;2.01;100.00
21276;BME280;36472;52.170;20.884;2023-01-19T02:13:04;99257.81;;;2.01;100.00
21276;BME280;36472;52.170;20.884;2023-01-19T02:15:53;99254.88;;;2.09;100.00
21276;BME280;36472;52.170;20.884;2023-01-19T02:18:26;99257.16;;;2.15;100.00
21276;BME280;36472;52.170;20.884;2023-01-19T02:21:06;99258.63;;;2.20;100.00
21276;BME280;36472;52.170;20.884;2023-01-19T02:23:42;99245.50;;;2.23;100.00
21276;BME280;36472;52.170;20.884;2023-01-19T02:26:16;99249.63;;;2.28;100.00
21276;BME280;36472;52.170;20.884;2023-01-19T02:28:50;99251.13;;;2.32;100.00
21276;BME280;36472;52.170;20.884;2023-01-19T02:31:22;99254.19;;;2.40;100.00
21276;BME280;36472;52.170;20.884;2023-01-19T02:33:51;99255.88;;;2.41;100.00
21276;BME280;36472;52.170;20.884;2023-01-19T02:36:24;99262.44;;;2.48;100.00
21276;BME280;36472;52.170;20.884;2023-01-19T02:38:58;99261.75;;;2.45;100.00
21276;BME280;36472;52.170;20.884;2023-01-19T02:41:37;99261.81;;;2.43;100.00
21276;BME280;36472;52.170;20.884;2023-01-19T02:44:09;99264.09;;;2.49;100.00
21276;BME280;36472;52.170;20.884;2023-01-19T02:46:38;99260.44;;;2.53;100.00
21276;BME280;36472;52.170;20.884;2023-01-19T02:49:08;99259.44;;;2.56;100.00
21276;BME280;36472;52.170;20.884;2023-01-19T02:51:37;99250.53;;;2.61;100.00
21276;BME280;36472;52.170;20.884;2023-01-19T02:54:34;99246.94;;;2.64;100.00
21276;BME280;36472;52.170;20.884;2023-01-19T02:57:32;99246.63;;;2.70;100.00
21276;BME280;36472;52.170;20.884;2023-01-19T03:00:18;99238.94;;;2.69;100.00
21276;BME280;36472;52.170;20.884;2023-01-19T03:03:10;99240.44;;;2.73;100.00
21276;BME280;36472;52.170;20.884;2023-01-19T03:05:56;99237.53;;;2.79;100.00
21276;BME280;36472;52.170;20.884;2023-01-19T03:08:42;99238.22;;;2.83;100.00
21276;BME280;36472;52.170;20.884;2023-01-19T03:11:16;99232.00;;;2.85;100.00
21276;BME280;36472;52.170;20.884;2023-01-19T03:13:51;99232.72;;;2.89;100.00
21276;BME280;36472;52.170;20.884;2023-01-19T03:16:29;99228.34;;;2.89;100.00
21276;BME280;36472;52.170;20.884;2023-01-19T03:19:07;99236.81;;;2.93;100.00
21276;BME280;36472;52.170;20.884;2023-01-19T03:21:41;99243.69;;;2.94;100.00
21276;BME280;36472;52.170;20.884;2023-01-19T03:24:12;99250.38;;;2.98;100.00
21276;BME280;36472;52.170;20.884;2023-01-19T03:26:51;99251.22;;;2.98;100.00
21276;BME280;36472;52.170;20.884;2023-01-19T03:29:27;99258.84;;;3.02;100.00
21276;BME280;36472;52.170;20.884;2023-01-19T03:32:05;99258.78;;;3.03;100.00
21276;BME280;36472;52.170;20.884;2023-01-19T03:34:37;99259.53;;;3.05;100.00
21276;BME280;36472;52.170;20.884;2023-01-19T03:37:09;99257.09;;;3.02;100.00
21276;BME280;36472;52.170;20.884;2023-01-19T03:39:40;99273.25;;;3.07;100.00
21276;BME280;36472;52.170;20.884;2023-01-19T03:42:13;99278.38;;;3.09;100.00
21276;BME280;36472;52.170;20.884;2023-01-19T03:44:45;99276.53;;;3.11;100.00
21276;BME280;36472;52.170;20.884;2023-01-19T03:47:18;99280.06;;;3.10;100.00
21276;BME280;36472;52.170;20.884;2023-01-19T03:49:50;99275.94;;;3.06;100.00
21276;BME280;36472;52.170;20.884;2023-01-19T03:52:27;99284.22;;;3.12;100.00
21276;BME280;36472;52.170;20.884;2023-01-19T03:55:00;99292.97;;;3.11;100.00
21276;BME280;36472;52.170;20.884;2023-01-19T03:57:31;99294.69;;;3.11;100.00
21276;BME280;36472;52.170;20.884;2023-01-19T04:00:00;99296.53;;;3.09;100.00
21276;BME280;36472;52.170;20.884;2023-01-19T04:02:38;99302.59;;;3.09;100.00
21276;BME280;36472;52.170;20.884;2023-01-19T04:05:08;99304.41;;;3.07;100.00
21276;BME280;36472;52.170;20.884;2023-01-19T04:07:37;99306.16;;;3.07;100.00
21276;BME280;36472;52.170;20.884;2023-01-19T04:10:08;99304.47;;;3.06;100.00
21276;BME280;36472;52.170;20.884;2023-01-19T04:12:40;99303.50;;;3.08;100.00
21276;BME280;36472;52.170;20.884;2023-01-19T04:15:10;99314.56;;;3.12;100.00
21276;BME280;36472;52.170;20.884;2023-01-19T04:17:39;99315.31;;;3.14;100.00
21276;BME280;36472;52.170;20.884;2023-01-19T04:20:09;99326.44;;;3.16;100.00
21276;BME280;36472;52.170;20.884;2023-01-19T04:22:38;99322.03;;;3.18;100.00
21276;BME280;36472;52.170;20.884;2023-01-19T04:25:09;99318.59;;;3.17;100.00
21276;BME280;36472;52.170;20.884;2023-01-19T04:27:39;99331.34;;;3.22;100.00
21276;BME280;36472;52.170;20.884;2023-01-19T04:30:10;99333.94;;;3.22;100.00
21276;BME280;36472;52.170;20.884;2023-01-19T04:32:39;99338.22;;;3.23;100.00
21276;BME280;36472;52.170;20.884;2023-01-19T04:35:08;99339.88;;;3.24;100.00
21276;BME280;36472;52.170;20.884;2023-01-19T04:37:37;99336.53;;;3.22;100.00
21276;BME280;36472;52.170;20.884;2023-01-19T04:40:08;99340.91;;;3.22;100.00
21276;BME280;36472;52.170;20.884;2023-01-19T04:42:37;99340.03;;;3.21;100.00
21276;BME280;36472;52.170;20.884;2023-01-19T04:45:10;99340.81;;;3.23;100.00
21276;BME280;36472;52.170;20.884;2023-01-19T04:47:39;99345.06;;;3.24;100.00
21276;BME280;36472;52.170;20.884;2023-01-19T04:50:10;99343.41;;;3.23;100.00
21276;BME280;36472;52.170;20.884;2023-01-19T04:52:39;99361.81;;;3.18;100.00
21276;BME280;36472;52.170;20.884;2023-01-19T04:55:09;99364.50;;;3.17;100.00
21276;BME280;36472;52.170;20.884;2023-01-19T04:57:38;99364.56;;;3.15;100.00
21276;BME280;36472;52.170;20.884;2023-01-19T05:00:10;99360.19;;;3.16;100.00
21276;BME280;36472;52.170;20.884;2023-01-19T05:02:39;99364.63;;;3.14;100.00
21276;BME280;36472;52.170;20.884;2023-01-19T05:05:11;99363.66;;;3.16;100.00
21276;BME280;36472;52.170;20.884;2023-01-19T05:07:40;99368.00;;;3.16;100.00
21276;BME280;36472;52.170;20.884;2023-01-19T05:10:11;99365.31;;;3.17;100.00
21276;BME280;36472;52.170;20.884;2023-01-19T05:12:40;99379.09;;;3.20;100.00
21276;BME280;36472;52.170;20.884;2023-01-19T05:15:11;99390.38;;;3.18;100.00
21276;BME280;36472;52.170;20.884;2023-01-19T05:17:40;99384.28;;;3.20;100.00
21276;BME280;36472;52.170;20.884;2023-01-19T05:20:11;99383.56;;;3.16;100.00
21276;BME280;36472;52.170;20.884;2023-01-19T05:22:47;99367.22;;;3.14;100.00
21276;BME280;36472;52.170;20.884;2023-01-19T05:25:17;99362.97;;;3.13;100.00
21276;BME280;36472;52.170;20.884;2023-01-19T05:27:46;99373.19;;;3.16;100.00
21276;BME280;36472;52.170;20.884;2023-01-19T05:30:17;99372.50;;;3.12;100.00
21276;BME280;36472;52.170;20.884;2023-01-19T05:32:46;99378.78;;;3.08;100.00
21276;BME280;36472;52.170;20.884;2023-01-19T05:35:15;99389.25;;;3.07;100.00
21276;BME280;36472;52.170;20.884;2023-01-19T05:37:51;99394.50;;;3.05;100.00
21276;BME280;36472;52.170;20.884;2023-01-19T05:40:20;99394.66;;;3.02;100.00
21276;BME280;36472;52.170;20.884;2023-01-19T05:42:49;99389.38;;;3.04;100.00
21276;BME280;36472;52.170;20.884;2023-01-19T05:45:21;99391.97;;;3.04;100.00
21276;BME280;36472;52.170;20.884;2023-01-19T05:47:50;99385.06;;;3.04;100.00
21276;BME280;36472;52.170;20.884;2023-01-19T05:50:19;99386.78;;;3.04;100.00
21276;BME280;36472;52.170;20.884;2023-01-19T05:52:48;99387.81;;;3.01;100.00
21276;BME280;36472;52.170;20.884;2023-01-19T05:55:20;99384.03;;;3.07;100.00
21276;BME280;36472;52.170;20.884;2023-01-19T05:57:49;99389.63;;;2.99;100.00
21276;BME280;36472;52.170;20.884;2023-01-19T06:00:20;99396.28;;;3.05;100.00
21276;BME280;36472;52.170;20.884;2023-01-19T06:02:49;99405.97;;;3.01;100.00
21276;BME280;36472;52.170;20.884;2023-01-19T06:05:19;99415.28;;;3.05;100.00
21276;BME280;36472;52.170;20.884;2023-01-19T06:07:47;99409.19;;;3.06;100.00
21276;BME280;36472;52.170;20.884;2023-01-19T06:10:17;99398.94;;;3.03;100.00
21276;BME280;36472;52.170;20.884;2023-01-19T06:12:45;99404.97;;;3.04;100.00
21276;BME280;36472;52.170;20.884;2023-01-19T06:15:15;99419.50;;;3.08;100.00
21276;BME280;36472;52.170;20.884;2023-01-19T06:17:45;99426.47;;;3.06;100.00
21276;BME280;36472;52.170;20.884;2023-01-19T06:20:14;99431.84;;;3.03;100.00
21276;BME280;36472;52.170;20.884;2023-01-19T06:22:43;99450.94;;;3.02;100.00
21276;BME280;36472;52.170;20.884;2023-01-19T06:25:12;99456.34;;;2.97;100.00
21276;BME280;36472;52.170;20.884;2023-01-19T06:27:43;99462.47;;;2.96;100.00
21276;BME280;36472;52.170;20.884;2023-01-19T06:30:13;99454.97;;;2.90;100.00
21276;BME280;36472;52.170;20.884;2023-01-19T06:32:45;99463.38;;;2.95;100.00
21276;BME280;36472;52.170;20.884;2023-01-19T06:35:14;99466.66;;;2.98;100.00
21276;BME280;36472;52.170;20.884;2023-01-19T06:37:43;99471.06;;;2.96;100.00
21276;BME280;36472;52.170;20.884;2023-01-19T06:40:12;99480.25;;;3.04;100.00
21276;BME280;36472;52.170;20.884;2023-01-19T06:42:41;99484.47;;;3.06;100.00
21276;BME280;36472;52.170;20.884;2023-01-19T06:45:10;99489.78;;;3.03;100.00
21276;BME280;36472;52.170;20.884;2023-01-19T06:47:39;99498.13;;;3.10;100.00
21276;BME280;36472;52.170;20.884;2023-01-19T06:50:10;99498.28;;;3.07;100.00
21276;BME280;36472;52.170;20.884;2023-01-19T06:52:39;99490.00;;;2.98;100.00
21276;BME280;36472;52.170;20.884;2023-01-19T06:55:10;99499.88;;;3.09;100.00
21276;BME280;36472;52.170;20.884;2023-01-19T06:57:40;99497.28;;;3.09;100.00
21276;BME280;36472;52.170;20.884;2023-01-19T07:00:13;99491.94;;;3.12;100.00
21276;BME280;36472;52.170;20.884;2023-01-19T07:02:42;99477.56;;;3.05;100.00
21276;BME280;36472;52.170;20.884;2023-01-19T07:05:13;99481.16;;;3.03;100.00
21276;BME280;36472;52.170;20.884;2023-01-19T07:07:42;99475.81;;;3.06;100.00
21276;BME280;36472;52.170;20.884;2023-01-19T07:10:12;99474.16;;;3.05;100.00
21276;BME280;36472;52.170;20.884;2023-01-19T07:12:42;99467.81;;;3.10;100.00
21276;BME280;36472;52.170;20.884;2023-01-19T07:15:14;99472.94;;;3.12;100.00
21276;BME280;36472;52.170;20.884;2023-01-19T07:17:43;99467.50;;;3.16;100.00
21276;BME280;36472;52.170;20.884;2023-01-19T07:20:14;99473.53;;;3.17;100.00
21276;BME280;36472;52.170;20.884;2023-01-19T07:22:46;99472.72;;;3.16;100.00
21276;BME280;36472;52.170;20.884;2023-01-19T07:25:15;99480.25;;;3.21;100.00
21276;BME280;36472;52.170;20.884;2023-01-19T07:27:44;99477.66;;;3.21;100.00
21276;BME280;36472;52.170;20.884;2023-01-19T07:30:14;99471.41;;;3.25;100.00
21276;BME280;36472;52.170;20.884;2023-01-19T07:32:43;99474.00;;;3.25;100.00
21276;BME280;36472;52.170;20.884;2023-01-19T07:35:13;99474.16;;;3.22;100.00
21276;BME280;36472;52.170;20.884;2023-01-19T07:37:42;99474.16;;;3.22;100.00
21276;BME280;36472;52.170;20.884;2023-01-19T07:40:13;99478.88;;;3.14;100.00
21276;BME280;36472;52.170;20.884;2023-01-19T07:42:45;99484.81;;;3.16;100.00
21276;BME280;36472;52.170;20.884;2023-01-19T07:45:15;99486.59;;;3.15;100.00
21276;BME280;36472;52.170;20.884;2023-01-19T07:47:45;99489.19;;;3.15;100.00
21276;BME280;36472;52.170;20.884;2023-01-19T07:50:17;99502.16;;;3.15;100.00
21276;BME280;36472;52.170;20.884;2023-01-19T07:52:47;99503.88;;;3.16;100.00
21276;BME280;36472;52.170;20.884;2023-01-19T07:55:19;99502.84;;;3.19;100.00
21276;BME280;36472;52.170;20.884;2023-01-19T07:57:49;99521.03;;;3.19;100.00
21276;BME280;36472;52.170;20.884;2023-01-19T08:00:20;99533.19;;;3.18;100.00
21276;BME280;36472;52.170;20.884;2023-01-19T08:02:52;99523.63;;;3.19;100.00
21276;BME280;36472;52.170;20.884;2023-01-19T08:05:28;99521.97;;;3.18;100.00
21276;BME280;36472;52.170;20.884;2023-01-19T08:07:58;99520.13;;;3.20;100.00
21276;BME280;36472;52.170;20.884;2023-01-19T08:10:28;99517.75;;;3.15;100.00
21276;BME280;36472;52.170;20.884;2023-01-19T08:12:57;99507.28;;;3.17;100.00
21276;BME280;36472;52.170;20.884;2023-01-19T08:15:27;99507.91;;;3.22;100.00
21276;BME280;36472;52.170;20.884;2023-01-19T08:17:57;99503.41;;;3.26;100.00
21276;BME280;36472;52.170;20.884;2023-01-19T08:20:28;99498.88;;;3.29;100.00
21276;BME280;36472;52.170;20.884;2023-01-19T08:22:57;99498.75;;;3.32;100.00
21276;BME280;36472;52.170;20.884;2023-01-19T08:25:32;99500.28;;;3.36;100.00
21276;BME280;36472;52.170;20.884;2023-01-19T08:28:01;99502.09;;;3.34;100.00
21276;BME280;36472;52.170;20.884;2023-01-19T08:30:32;99493.19;;;3.40;100.00
21276;BME280;36472;52.170;20.884;2023-01-19T08:33:01;99484.84;;;3.33;100.00
21276;BME280;36472;52.170;20.884;2023-01-19T08:35:40;99482.31;;;3.32;100.00
21276;BME280;36472;52.170;20.884;2023-01-19T08:38:10;99498.31;;;3.42;100.00
21276;BME280;36472;52.170;20.884;2023-01-19T08:40:40;99498.13;;;3.45;100.00
21276;BME280;36472;52.170;20.884;2023-01-19T08:43:13;99490.88;;;3.51;100.00
21276;BME280;36472;52.170;20.884;2023-01-19T08:45:45;99497.00;;;3.50;100.00
21276;BME280;36472;52.170;20.884;2023-01-19T08:48:21;99488.34;;;3.50;100.00
21276;BME280;36472;52.170;20.884;2023-01-19T08:50:52;99501.19;;;3.53;100.00
21276;BME280;36472;52.170;20.884;2023-01-19T08:53:21;99502.94;;;3.52;100.00
21276;BME280;36472;52.170;20.884;2023-01-19T08:55:54;99503.69;;;3.54;100.00
21276;BME280;36472;52.170;20.884;2023-01-19T08:58:26;99512.25;;;3.56;100.00
21276;BME280;36472;52.170;20.884;2023-01-19T09:00:58;99521.66;;;3.59;100.00
21276;BME280;36472;52.170;20.884;2023-01-19T09:03:30;99531.13;;;3.60;100.00
21276;BME280;36472;52.170;20.884;2023-01-19T09:06:01;99520.72;;;3.60;100.00
21276;BME280;36472;52.170;20.884;2023-01-19T09:08:32;99523.50;;;3.57;100.00
21276;BME280;36472;52.170;20.884;2023-01-19T09:11:02;99514.72;;;3.60;100.00
21276;BME280;36472;52.170;20.884;2023-01-19T09:13:31;99519.84;;;3.61;100.00
21276;BME280;36472;52.170;20.884;2023-01-19T09:16:02;99526.78;;;3.61;100.00
21276;BME280;36472;52.170;20.884;2023-01-19T09:18:34;99526.88;;;3.59;100.00
21276;BME280;36472;52.170;20.884;2023-01-19T09:21:05;99521.66;;;3.59;100.00
21276;BME280;36472;52.170;20.884;2023-01-19T09:23:35;99525.16;;;3.58;100.00
21276;BME280;36472;52.170;20.884;2023-01-19T09:26:05;99539.38;;;3.68;100.00
21276;BME280;36472;52.170;20.884;2023-01-19T09:28:36;99546.72;;;3.60;100.00
21276;BME280;36472;52.170;20.884;2023-01-19T09:31:06;99543.22;;;3.61;100.00
21276;BME280;36472;52.170;20.884;2023-01-19T09:33:36;99546.66;;;3.62;100.00
21276;BME280;36472;52.170;20.884;2023-01-19T09:36:07;99541.38;;;3.63;100.00
21276;BME280;36472;52.170;20.884;2023-01-19T09:38:37;99544.13;;;3.60;100.00
21276;BME280;36472;52.170;20.884;2023-01-19T09:41:17;99532.97;;;3.58;100.00
21276;BME280;36472;52.170;20.884;2023-01-19T09:43:54;99544.75;;;3.48;100.00
21276;BME280;36472;52.170;20.884;2023-01-19T09:46:33;99539.16;;;3.55;100.00
21276;BME280;36472;52.170;20.884;2023-01-19T09:49:09;99536.88;;;3.49;100.00
21276;BME280;36472;52.170;20.884;2023-01-19T09:51:45;99529.22;;;3.46;100.00
21276;BME280;36472;52.170;20.884;2023-01-19T09:54:16;99518.84;;;3.46;100.00
21276;BME280;36472;52.170;20.884;2023-01-19T09:56:48;99520.44;;;3.49;100.00
21276;BME280;36472;52.170;20.884;2023-01-19T09:59:23;99520.31;;;3.52;100.00
21276;BME280;36472;52.170;20.884;2023-01-19T10:02:18;99523.34;;;3.60;100.00
21276;BME280;36472;52.170;20.884;2023-01-19T10:04:58;99515.53;;;3.60;100.00
21276;BME280;36472;52.170;20.884;2023-01-19T10:07:52;99518.00;;;3.63;100.00
21276;BME280;36472;52.170;20.884;2023-01-19T10:10:27;99521.53;;;3.62;100.00
21276;BME280;36472;52.170;20.884;2023-01-19T10:13:12;99518.53;;;3.70;100.00
21276;BME280;36472;52.170;20.884;2023-01-19T10:15:57;99518.03;;;3.79;100.00
21276;BME280;36472;52.170;20.884;2023-01-19T10:18:40;99515.63;;;3.76;100.00
21276;BME280;36472;52.170;20.884;2023-01-19T10:21:18;99514.69;;;3.77;100.00
21276;BME280;36472;52.170;20.884;2023-01-19T10:23:54;99500.78;;;3.78;100.00
21276;BME280;36472;52.170;20.884;2023-01-19T10:26:31;99496.19;;;3.83;100.00
21276;BME280;36472;52.170;20.884;2023-01-19T10:29:05;99503.97;;;3.83;100.00
21276;BME280;36472;52.170;20.884;2023-01-19T10:31:37;99504.81;;;3.84;100.00
21276;BME280;36472;52.170;20.884;2023-01-19T10:34:11;99500.28;;;3.87;100.00
21276;BME280;36472;52.170;20.884;2023-01-19T10:36:54;99491.50;;;3.90;100.00
21276;BME280;36472;52.170;20.884;2023-01-19T10:39:28;99488.56;;;3.96;100.00
21276;BME280;36472;52.170;20.884;2023-01-19T10:41:59;99482.63;;;3.94;100.00
21276;BME280;36472;52.170;20.884;2023-01-19T10:44:36;99487.81;;;3.94;100.00
21276;BME280;36472;52.170;20.884;2023-01-19T10:47:13;99479.25;;;3.92;100.00
21276;BME280;36472;52.170;20.884;2023-01-19T10:49:45;99484.63;;;3.89;100.00
21276;BME280;36472;52.170;20.884;2023-01-19T10:52:28;99484.84;;;3.84;100.00
21276;BME280;36472;52.170;20.884;2023-01-19T10:55:00;99494.94;;;3.90;100.00
21276;BME280;36472;52.170;20.884;2023-01-19T10:57:33;99504.59;;;3.88;100.00
21276;BME280;36472;52.170;20.884;2023-01-19T11:00:30;99496.63;;;3.91;100.00
21276;BME280;36472;52.170;20.884;2023-01-19T11:03:00;99495.97;;;3.88;100.00
21276;BME280;36472;52.170;20.884;2023-01-19T11:05:32;99499.22;;;3.91;100.00
21276;BME280;36472;52.170;20.884;2023-01-19T11:08:22;99500.81;;;3.94;100.00
21276;BME280;36472;52.170;20.884;2023-01-19T11:10:58;99506.00;;;3.94;100.00
21276;BME280;36472;52.170;20.884;2023-01-19T11:13:29;99501.03;;;3.89;100.00
21276;BME280;36472;52.170;20.884;2023-01-19T11:16:05;99500.06;;;3.92;100.00
21276;BME280;36472;52.170;20.884;2023-01-19T11:18:39;99501.97;;;3.88;100.00
21276;BME280;36472;52.170;20.884;2023-01-19T11:21:13;99497.78;;;3.86;100.00
21276;BME280;36472;52.170;20.884;2023-01-19T11:23:47;99494.25;;;3.87;100.00
21276;BME280;36472;52.170;20.884;2023-01-19T11:26:27;99496.72;;;3.90;100.00
21276;BME280;36472;52.170;20.884;2023-01-19T11:29:01;99487.91;;;3.92;100.00
21276;BME280;36472;52.170;20.884;2023-01-19T11:31:33;99479.94;;;3.96;100.00
21276;BME280;36472;52.170;20.884;2023-01-19T11:34:20;99472.13;;;3.96;100.00
21276;BME280;36472;52.170;20.884;2023-01-19T11:36:57;99461.44;;;4.02;100.00
21276;BME280;36472;52.170;20.884;2023-01-19T11:39:28;99464.78;;;4.04;100.00
21276;BME280;36472;52.170;20.884;2023-01-19T11:42:02;99467.31;;;4.05;100.00
21276;BME280;36472;52.170;20.884;2023-01-19T11:44:35;99464.38;;;4.11;100.00
21276;BME280;36472;52.170;20.884;2023-01-19T11:47:15;99430.97;;;3.88;100.00
21276;BME280;36472;52.170;20.884;2023-01-19T11:49:51;99467.91;;;4.10;100.00
21276;BME280;36472;52.170;20.884;2023-01-19T11:52:30;99456.41;;;4.15;100.00
21276;BME280;36472;52.170;20.884;2023-01-19T11:55:13;99453.06;;;4.12;100.00
21276;BME280;36472;52.170;20.884;2023-01-19T11:57:48;99455.56;;;4.14;100.00
21276;BME280;36472;52.170;20.884;2023-01-19T12:00:31;99462.34;;;4.17;99.76
21276;BME280;36472;52.170;20.884;2023-01-19T12:03:12;99460.69;;;4.16;99.37
21276;BME280;36472;52.170;20.884;2023-01-19T12:05:48;99460.78;;;4.14;99.74
21276;BME280;36472;52.170;20.884;2023-01-19T12:08:25;99457.81;;;4.04;99.45
21276;BME280;36472;52.170;20.884;2023-01-19T12:10:58;99463.75;;;4.06;99.07
21276;BME280;36472;52.170;20.884;2023-01-19T12:13:32;99458.34;;;4.11;99.46
21276;BME280;36472;52.170;20.884;2023-01-19T12:16:09;99455.66;;;4.12;100.00
21276;BME280;36472;52.170;20.884;2023-01-19T12:18:43;99458.25;;;4.12;99.91
21276;BME280;36472;52.170;20.884;2023-01-19T12:21:13;99460.44;;;4.20;99.48
21276;BME280;36472;52.170;20.884;2023-01-19T12:23:52;99465.06;;;4.15;99.00
21276;BME280;36472;52.170;20.884;2023-01-19T12:26:43;99460.69;;;4.16;98.84
21276;BME280;36472;52.170;20.884;2023-01-19T12:29:20;99457.25;;;4.15;98.66
21276;BME280;36472;52.170;20.884;2023-01-19T12:32:17;99447.69;;;4.16;98.59
21276;BME280;36472;52.170;20.884;2023-01-19T12:34:48;99450.88;;;4.21;98.08
21276;BME280;36472;52.170;20.884;2023-01-19T12:37:42;99447.19;;;4.25;97.12
21276;BME280;36472;52.170;20.884;2023-01-19T12:40:24;99450.88;;;4.21;96.79
21276;BME280;36472;52.170;20.884;2023-01-19T12:42:58;99444.34;;;4.14;94.79
21276;BME280;36472;52.170;20.884;2023-01-19T12:45:32;99452.22;;;4.12;94.40
21276;BME280;36472;52.170;20.884;2023-01-19T12:48:03;99445.09;;;4.16;94.85
21276;BME280;36472;52.170;20.884;2023-01-19T12:50:37;99450.06;;;4.20;95.96
21276;BME280;36472;52.170;20.884;2023-01-19T12:53:18;99451.63;;;4.23;96.60
21276;BME280;36472;52.170;20.884;2023-01-19T12:55:59;99449.03;;;4.23;97.30
21276;BME280;36472;52.170;20.884;2023-01-19T12:58:28;99447.34;;;4.22;97.05
21276;BME280;36472;52.170;20.884;2023-01-19T13:01:15;99442.13;;;4.22;96.43
21276;BME280;36472;52.170;20.884;2023-01-19T13:04:00;99440.25;;;4.25;96.85
21276;BME280;36472;52.170;20.884;2023-01-19T13:07:08;99434.25;;;4.23;96.61
21276;BME280;36472;52.170;20.884;2023-01-19T13:09:40;99431.50;;;4.26;97.48
21276;BME280;36472;52.170;20.884;2023-01-19T13:12:21;99429.72;;;4.27;97.72
21276;BME280;36472;52.170;20.884;2023-01-19T13:15:33;99442.00;;;4.41;97.72
21276;BME280;36472;52.170;20.884;2023-01-19T13:18:06;99440.63;;;4.34;97.68
21276;BME280;36472;52.170;20.884;2023-01-19T13:20:45;99438.97;;;4.33;97.89
21276;BME280;36472;52.170;20.884;2023-01-19T13:23:22;99436.28;;;4.34;97.90